Pagina principale
METAR-TAF:

METAR-TAF

Aeroporti :

Aeroporto Internazionale del Cairo

Il Cairo, Egitto

latitudine: 30-08N, longitudine: 031-24E, altezza: 64 m

Osservazione

Il bollettino è stato emesso 33 minuti fa, alle 22:30 UTC
Vento 8 kt da nord
Temperature 26°C
Umidità 70%
Pressione 1010 hPa
Visibilità 10 km o più
nessuna nube inferiore a 1500 m e nessun cumulonembo

METAR: HECA 222230Z 36008KT CAVOK 26/20 Q1010 NOSIG

Ora: 01:03 (23:03 UTC)

Previsione

Il bollettino è stato emesso 6 ore e 3 minuti fa, alle 17:00 UTC
Previsione valida dal 22 alle 18 UTC al 23 alle 24 UTC
Vento 10 kt da nord
Visibilità 10 km o più
nessuna nube inferiore a 1500 m e nessun cumulonembo
Temporaneamente
dal 23 alle 03 UTC al 23 alle 06 UTC
Vento 3 kt da direzioni variabili
Visibilità: 4000 m
foschia

TAF: HECA 221700Z 2218/2324 35010KT CAVOK TEMPO 2303/2306 VRB03KT 4000 BR NSC

Osservazioni e previsioni meteorologiche di più di 4000 aeroporti (messaggi METAR e TAF).

Le stazioni disponibili sono rappresentate dai dischi gialli e rossi sulla carta.

Puntare il mouse per vedere il nome della stazione.

Clicca sopra per visualizzare le osservazioni e previsioni meteorologiche.

Per cambiare la mappa : fare clic sui pulsanti verdi con una croce nera per ingrandire, il pulsante verde con un trattino per diminuire, o sulla freccia verde per le mappe adiacenti.


METAR-TAF: